createdAt,value
2018-08-07T00:00:32.642Z,1.77
2018-08-07T00:03:02.180Z,2.43
2018-08-07T00:05:31.700Z,2.03
2018-08-07T00:08:01.180Z,1.60
2018-08-07T00:10:30.769Z,3.27
2018-08-07T00:13:00.292Z,1.97
2018-08-07T00:15:29.862Z,3.10
2018-08-07T00:17:59.367Z,2.87
2018-08-07T00:20:28.898Z,4.67
2018-08-07T00:22:58.402Z,3.93
2018-08-07T00:25:27.488Z,2.00
2018-08-07T00:27:56.964Z,2.60
2018-08-07T00:30:26.560Z,2.33
2018-08-07T00:32:56.124Z,2.30
2018-08-07T00:35:25.697Z,2.03
2018-08-07T00:37:55.242Z,2.20
2018-08-07T00:40:24.762Z,2.23
2018-08-07T00:42:54.350Z,2.60
2018-08-07T00:45:23.858Z,2.63
2018-08-07T00:47:53.341Z,3.07
2018-08-07T00:50:22.935Z,2.40
2018-08-07T00:52:52.570Z,2.33
2018-08-07T00:55:22.381Z,2.43
2018-08-07T00:57:51.916Z,2.93
2018-08-07T01:00:21.489Z,2.90
2018-08-07T01:02:51.118Z,3.27
2018-08-07T01:05:20.726Z,4.27
2018-08-07T01:07:50.542Z,3.50
2018-08-07T01:10:20.077Z,2.67
2018-08-07T01:12:49.694Z,2.40
2018-08-07T01:15:21.246Z,4.13
2018-08-07T01:17:50.790Z,2.57
2018-08-07T01:20:22.800Z,3.43
2018-08-07T01:22:52.730Z,2.97
2018-08-07T01:25:24.225Z,2.53
2018-08-07T01:27:53.880Z,2.60
2018-08-07T01:30:25.298Z,3.70
2018-08-07T01:32:55.695Z,3.13
2018-08-07T01:35:26.045Z,2.90
2018-08-07T01:37:55.569Z,2.60
2018-08-07T01:40:25.150Z,2.80
2018-08-07T01:42:54.723Z,4.23
2018-08-07T01:45:24.337Z,2.43
2018-08-07T01:47:53.868Z,3.60
2018-08-07T01:50:23.532Z,4.03
2018-08-07T01:52:53.037Z,2.90
2018-08-07T01:55:24.178Z,3.33
2018-08-07T01:57:53.855Z,2.83
2018-08-07T02:00:23.483Z,3.33
2018-08-07T02:02:53.025Z,3.17
2018-08-07T02:05:22.653Z,3.40
2018-08-07T02:07:52.152Z,3.20
2018-08-07T02:10:21.714Z,3.03
2018-08-07T02:12:51.302Z,2.80
2018-08-07T02:15:20.904Z,3.03
2018-08-07T02:17:50.532Z,3.07
2018-08-07T02:20:20.095Z,3.93
2018-08-07T02:22:49.737Z,2.80
2018-08-07T02:25:20.147Z,3.70
2018-08-07T02:27:49.674Z,3.00
2018-08-07T02:30:19.411Z,3.20
2018-08-07T02:32:48.953Z,3.23
2018-08-07T02:35:18.615Z,4.30
2018-08-07T02:37:48.509Z,3.70
2018-08-07T02:40:18.292Z,5.10
2018-08-07T02:42:47.919Z,4.37
2018-08-07T02:45:18.648Z,3.37
2018-08-07T02:47:48.757Z,3.00
2018-08-07T02:50:21.177Z,3.70
2018-08-07T02:52:50.683Z,3.87
2018-08-07T02:55:20.274Z,3.40
2018-08-07T02:57:49.801Z,3.27
2018-08-07T03:00:20.968Z,3.53
2018-08-07T03:02:50.794Z,3.30
2018-08-07T03:05:21.194Z,3.23
2018-08-07T03:07:50.908Z,4.03
2018-08-07T03:10:20.542Z,4.43
2018-08-07T03:12:50.054Z,3.40
2018-08-07T03:15:20.561Z,3.27
2018-08-07T03:17:50.507Z,3.13
2018-08-07T03:20:20.114Z,3.60
2018-08-07T03:22:49.619Z,3.40
2018-08-07T03:25:19.161Z,3.53
2018-08-07T03:27:48.614Z,3.60
2018-08-07T03:30:19.382Z,3.80
2018-08-07T03:32:49.202Z,3.90
2018-08-07T03:35:18.806Z,3.80
2018-08-07T03:37:48.263Z,3.90
2018-08-07T03:40:18.930Z,4.77
2018-08-07T03:42:48.522Z,3.40
2018-08-07T03:45:19.329Z,3.70
2018-08-07T03:47:49.375Z,4.00
2018-08-07T03:50:19.036Z,4.37
2018-08-07T03:52:48.556Z,4.10
2018-08-07T03:55:19.286Z,4.10
2018-08-07T03:57:49.105Z,4.97
2018-08-07T04:00:20.431Z,4.67
2018-08-07T04:02:50.071Z,3.90
2018-08-07T04:05:19.671Z,5.30
2018-08-07T04:07:49.232Z,3.83
2018-08-07T04:10:19.534Z,4.70
2018-08-07T04:12:49.120Z,4.13
2018-08-07T04:15:18.534Z,5.07
2018-08-07T04:17:48.038Z,6.00
2018-08-07T04:20:18.672Z,4.50
2018-08-07T04:22:48.388Z,6.47
2018-08-07T04:25:18.100Z,6.40
2018-08-07T04:27:47.663Z,8.93
2018-08-07T04:30:18.653Z,5.40
2018-08-07T04:32:48.416Z,5.60
2018-08-07T04:35:18.345Z,6.10
2018-08-07T04:37:47.980Z,5.37
2018-08-07T04:40:17.528Z,7.03
2018-08-07T04:42:47.055Z,6.63
2018-08-07T04:45:17.763Z,5.63
2018-08-07T04:47:48.194Z,7.50
2018-08-07T04:50:17.837Z,7.67
2018-08-07T04:52:47.395Z,6.40
2018-08-07T04:55:16.905Z,6.43
2018-08-07T04:57:46.492Z,7.73
2018-08-07T05:00:18.227Z,7.77
2018-08-07T05:02:48.635Z,6.20
2018-08-07T05:05:18.291Z,6.87
2018-08-07T05:07:47.868Z,7.17
2018-08-07T05:10:18.549Z,6.77
2018-08-07T05:12:48.404Z,5.73
2018-08-07T05:15:17.964Z,7.50
2018-08-07T05:17:48.042Z,6.27
2018-08-07T05:20:17.638Z,9.17
2018-08-07T05:22:47.102Z,6.90
2018-08-07T05:25:16.713Z,7.60
2018-08-07T05:27:46.205Z,6.93
2018-08-07T05:30:16.925Z,6.47
2018-08-07T05:32:46.462Z,8.27
2018-08-07T05:35:16.566Z,6.23
2018-08-07T05:37:46.126Z,9.13
2018-08-07T05:40:15.654Z,7.73
2018-08-07T05:42:44.796Z,7.93
2018-08-07T05:45:16.256Z,6.57
2018-08-07T05:47:45.452Z,8.17
2018-08-07T05:50:16.315Z,7.43
2018-08-07T05:52:45.789Z,9.27
2018-08-07T05:55:15.605Z,6.40
2018-08-07T05:57:45.208Z,4.77
2018-08-07T06:00:17.295Z,5.63
2018-08-07T06:02:47.302Z,7.60
2018-08-07T06:05:16.899Z,8.60
2018-08-07T06:07:46.727Z,8.33
2018-08-07T06:10:16.342Z,6.47
2018-08-07T06:12:45.927Z,5.60
2018-08-07T06:15:16.516Z,6.47
2018-08-07T06:17:46.751Z,4.20
2018-08-07T06:20:16.308Z,4.43
2018-08-07T06:22:45.848Z,6.47
2018-08-07T06:25:15.001Z,5.80
2018-08-07T06:27:44.478Z,4.63
2018-08-07T06:30:19.864Z,4.43
2018-08-07T06:32:50.009Z,3.97
2018-08-07T06:35:20.023Z,4.63
2018-08-07T06:37:49.640Z,4.30
2018-08-07T06:40:19.208Z,3.83
2018-08-07T06:42:48.747Z,3.43
2018-08-07T06:45:18.761Z,3.07
2018-08-07T06:47:48.285Z,3.30
2018-08-07T06:50:19.948Z,3.67
2018-08-07T06:52:50.258Z,4.07
2018-08-07T06:55:19.800Z,3.67
2018-08-07T06:57:49.456Z,3.10
2018-08-07T07:00:22.161Z,3.60
2018-08-07T07:02:51.953Z,4.63
2018-08-07T07:05:21.739Z,4.93
2018-08-07T07:07:51.401Z,2.57
2018-08-07T07:10:21.012Z,5.57
2018-08-07T07:12:50.593Z,3.03
2018-08-07T07:15:20.194Z,2.90
2018-08-07T07:17:49.702Z,2.57
2018-08-07T07:20:19.868Z,4.83
2018-08-07T07:22:49.890Z,2.63
2018-08-07T07:25:19.430Z,2.70
2018-08-07T07:27:49.789Z,2.77
2018-08-07T07:30:21.360Z,3.27
2018-08-07T07:32:52.164Z,2.53
2018-08-07T07:35:21.710Z,3.63
2018-08-07T07:37:51.416Z,2.60
2018-08-07T07:40:20.916Z,3.60
2018-08-07T07:42:50.675Z,4.00
2018-08-07T07:45:20.999Z,2.53
2018-08-07T07:47:50.510Z,3.17
2018-08-07T07:50:21.245Z,2.63
2018-08-07T07:52:50.858Z,5.00
2018-08-07T07:55:20.685Z,3.40
2018-08-07T07:57:50.248Z,3.67
2018-08-07T08:00:22.464Z,2.37
2018-08-07T08:02:52.218Z,2.80
2018-08-07T08:05:22.724Z,3.50
2018-08-07T08:07:52.264Z,5.80
2018-08-07T08:10:21.754Z,3.90
2018-08-07T08:12:51.332Z,3.63
2018-08-07T08:15:20.950Z,2.23
2018-08-07T08:17:50.855Z,3.23
2018-08-07T08:20:22.545Z,3.13
2018-08-07T08:22:52.744Z,2.50
2018-08-07T08:25:22.250Z,2.37
2018-08-07T08:27:51.863Z,3.43
2018-08-07T08:30:21.574Z,3.50
2018-08-07T08:32:51.175Z,3.93
2018-08-07T08:35:20.887Z,2.33
2018-08-07T08:37:50.723Z,3.27
2018-08-07T08:40:21.886Z,3.47
2018-08-07T08:42:51.384Z,3.00
2018-08-07T08:45:23.483Z,4.33
2018-08-07T08:47:53.569Z,2.93
2018-08-07T08:50:23.240Z,3.63
2018-08-07T08:52:52.828Z,2.37
2018-08-07T08:55:22.648Z,3.33
2018-08-07T08:57:52.215Z,1.87
2018-08-07T09:00:25.013Z,2.10
2018-08-07T09:02:55.535Z,2.17
2018-08-07T09:05:25.122Z,3.00
2018-08-07T09:07:54.757Z,2.20
2018-08-07T09:10:27.794Z,3.20
2018-08-07T09:12:58.061Z,3.00
2018-08-07T09:15:27.788Z,3.00
2018-08-07T09:17:57.402Z,3.10
2018-08-07T09:20:29.595Z,2.20
2018-08-07T09:22:59.490Z,3.20
2018-08-07T09:25:30.091Z,3.00
2018-08-07T09:27:59.698Z,2.87
2018-08-07T09:30:30.440Z,2.60
2018-08-07T09:33:00.538Z,2.63
2018-08-07T09:35:30.106Z,2.53
2018-08-07T09:37:59.928Z,3.60
2018-08-07T09:40:29.645Z,2.30
2018-08-07T09:42:59.348Z,2.50
2018-08-07T09:45:32.412Z,3.53
2018-08-07T09:48:03.236Z,2.57
2018-08-07T09:50:32.777Z,3.03
2018-08-07T09:53:02.501Z,2.47
2018-08-07T09:55:32.163Z,2.73
2018-08-07T09:58:01.798Z,2.00
2018-08-07T10:01:39.136Z,2.37
2018-08-07T10:04:08.721Z,2.10
2018-08-07T10:06:38.264Z,2.03
2018-08-07T10:09:09.016Z,2.27
2018-08-07T10:11:38.988Z,3.67
2018-08-07T10:14:08.590Z,3.80
2018-08-07T10:16:38.177Z,2.23
2018-08-07T10:19:07.682Z,1.73
2018-08-07T10:21:37.214Z,3.13
2018-08-07T10:24:06.379Z,2.33
2018-08-07T10:26:35.910Z,2.20
2018-08-07T10:29:05.835Z,2.60
2018-08-07T10:31:35.423Z,2.43
2018-08-07T10:34:05.039Z,5.90
2018-08-07T10:36:34.768Z,2.30
2018-08-07T10:39:06.220Z,3.00
2018-08-07T10:41:35.722Z,2.77
2018-08-07T10:44:05.297Z,3.27
2018-08-07T10:46:34.884Z,2.17
2018-08-07T10:49:04.565Z,2.63
2018-08-07T10:51:34.181Z,1.90
2018-08-07T10:54:03.836Z,2.13
2018-08-07T10:56:33.522Z,2.30
2018-08-07T10:59:03.003Z,3.20
2018-08-07T11:01:32.521Z,3.20
2018-08-07T11:04:02.028Z,2.10
2018-08-07T11:06:31.640Z,1.67
2018-08-07T11:09:01.356Z,1.70
2018-08-07T11:11:30.978Z,2.90
2018-08-07T11:14:00.493Z,2.00
2018-08-07T11:16:29.972Z,2.50
2018-08-07T11:18:59.494Z,1.93
2018-08-07T11:21:29.032Z,3.83
2018-08-07T11:23:58.846Z,2.23
2018-08-07T11:26:28.325Z,1.77
2018-08-07T11:28:58.053Z,2.23
2018-08-07T11:31:27.660Z,3.70
2018-08-07T11:33:57.268Z,1.90
2018-08-07T11:36:26.977Z,1.67
2018-08-07T11:38:56.551Z,1.67
2018-08-07T11:41:26.248Z,1.93
2018-08-07T11:43:55.417Z,1.50
2018-08-07T11:46:24.918Z,2.80
2018-08-07T11:48:54.423Z,2.53
2018-08-07T11:51:23.957Z,3.57
2018-08-07T11:53:53.495Z,2.93
2018-08-07T11:56:23.123Z,1.67
2018-08-07T11:58:52.746Z,2.33
2018-08-07T12:01:22.276Z,2.30
2018-08-07T12:03:51.848Z,3.53
2018-08-07T12:06:21.379Z,1.53
2018-08-07T12:08:50.870Z,2.33
2018-08-07T12:11:20.403Z,1.50
2018-08-07T12:13:49.907Z,1.30
2018-08-07T12:16:19.421Z,1.93
2018-08-07T12:18:49.046Z,2.47
2018-08-07T12:21:18.531Z,2.57
2018-08-07T12:23:48.089Z,1.57
2018-08-07T12:26:17.663Z,3.30
2018-08-07T12:28:47.186Z,2.77
2018-08-07T12:31:16.794Z,1.70
2018-08-07T12:33:46.408Z,2.17
2018-08-07T12:36:15.945Z,1.47
2018-08-07T12:38:45.625Z,2.20
2018-08-07T12:41:15.213Z,1.50
2018-08-07T12:43:44.779Z,2.13
2018-08-07T12:46:14.270Z,2.43
2018-08-07T12:48:43.726Z,2.03
2018-08-07T12:51:13.280Z,2.93
2018-08-07T12:53:42.892Z,1.67
2018-08-07T12:56:12.405Z,1.73
2018-08-07T12:58:42.019Z,3.23
2018-08-07T13:01:11.628Z,2.67
2018-08-07T13:03:44.917Z,3.00
2018-08-07T13:06:14.429Z,3.33
2018-08-07T13:08:43.981Z,2.10
2018-08-07T13:11:13.467Z,2.23
2018-08-07T13:13:42.955Z,1.77
2018-08-07T13:16:12.669Z,1.40
2018-08-07T13:18:42.157Z,1.70
2018-08-07T13:21:11.685Z,2.27
2018-08-07T13:23:41.194Z,1.73
2018-08-07T13:26:10.712Z,2.13
2018-08-07T13:28:40.211Z,1.77
2018-08-07T13:31:09.773Z,1.63
2018-08-07T13:33:39.465Z,4.00
2018-08-07T13:36:09.056Z,1.70
2018-08-07T13:38:38.762Z,2.10
2018-08-07T13:41:08.475Z,1.63
2018-08-07T13:43:38.009Z,2.40
2018-08-07T13:46:07.599Z,2.17
2018-08-07T13:48:37.162Z,1.90
2018-08-07T13:51:06.698Z,2.83
2018-08-07T13:53:36.993Z,3.60
2018-08-07T13:56:06.848Z,1.70
2018-08-07T13:58:36.358Z,2.57
2018-08-07T14:01:05.943Z,2.93
2018-08-07T14:03:35.624Z,2.67
2018-08-07T14:06:05.129Z,1.90
2018-08-07T14:08:34.684Z,2.60
2018-08-07T14:11:04.372Z,1.60
2018-08-07T14:13:33.489Z,1.67
2018-08-07T14:16:03.002Z,1.57
2018-08-07T14:18:32.877Z,1.50
2018-08-07T14:21:02.567Z,1.20
2018-08-07T14:23:32.143Z,2.40
2018-08-07T14:26:01.765Z,1.43
2018-08-07T14:28:31.297Z,1.70
2018-08-07T14:31:01.149Z,2.00
2018-08-07T14:33:30.697Z,2.93
2018-08-07T14:36:00.294Z,1.97
2018-08-07T14:38:29.918Z,1.97
2018-08-07T14:40:59.553Z,1.70
2018-08-07T14:43:29.152Z,1.37
2018-08-07T14:45:58.727Z,1.67
2018-08-07T14:48:28.500Z,1.50
2018-08-07T14:50:58.041Z,1.33
2018-08-07T14:53:27.583Z,1.93
2018-08-07T14:55:57.467Z,1.57
2018-08-07T14:58:26.743Z,2.00
2018-08-07T15:00:56.301Z,2.13
2018-08-07T15:03:25.463Z,1.80
2018-08-07T15:05:54.824Z,2.13
2018-08-07T15:08:24.345Z,2.37
2018-08-07T15:10:53.956Z,1.60
2018-08-07T15:13:23.698Z,2.77
2018-08-07T15:15:53.317Z,2.20
2018-08-07T15:18:23.023Z,1.90
2018-08-07T15:20:52.690Z,1.33
2018-08-07T15:23:22.244Z,2.87
2018-08-07T15:25:51.828Z,1.70
2018-08-07T15:28:21.363Z,3.07
2018-08-07T15:30:50.885Z,3.00
2018-08-07T15:33:20.399Z,3.03
2018-08-07T15:35:49.930Z,2.23
2018-08-07T15:38:19.604Z,1.50
2018-08-07T15:40:49.174Z,2.30
2018-08-07T15:43:18.705Z,3.00
2018-08-07T15:45:48.337Z,2.57
2018-08-07T15:48:17.952Z,2.50
2018-08-07T15:50:47.558Z,2.40
2018-08-07T15:53:17.140Z,1.60
2018-08-07T15:55:46.642Z,1.50
2018-08-07T15:58:16.287Z,3.00
2018-08-07T16:00:45.759Z,1.80
2018-08-07T16:03:15.238Z,1.73
2018-08-07T16:05:44.811Z,2.87
2018-08-07T16:08:14.416Z,2.87
2018-08-07T16:10:43.939Z,3.07
2018-08-07T16:13:13.613Z,3.50
2018-08-07T16:15:43.175Z,2.63
2018-08-07T16:18:12.670Z,2.90
2018-08-07T16:20:42.237Z,2.93
2018-08-07T16:23:11.896Z,3.17
2018-08-07T16:25:41.449Z,2.97
2018-08-07T16:28:10.639Z,2.83
2018-08-07T16:30:40.218Z,3.17
2018-08-07T16:33:09.802Z,2.97
2018-08-07T16:35:39.420Z,3.13
2018-08-07T16:38:09.064Z,2.97
2018-08-07T16:40:38.872Z,2.20
2018-08-07T16:43:08.364Z,2.80
2018-08-07T16:45:37.942Z,3.53
2018-08-07T16:48:07.500Z,3.80
2018-08-07T16:50:37.008Z,3.23
2018-08-07T16:53:06.607Z,2.97
2018-08-07T16:55:36.135Z,2.60
2018-08-07T16:58:05.760Z,3.97
2018-08-07T17:00:35.434Z,3.60
2018-08-07T17:03:05.168Z,4.23
2018-08-07T17:05:34.776Z,2.60
2018-08-07T17:08:04.353Z,3.67
2018-08-07T17:10:33.939Z,2.70
2018-08-07T17:13:03.514Z,3.03
2018-08-07T17:15:33.022Z,3.30
2018-08-07T17:18:02.634Z,2.30
2018-08-07T17:20:32.206Z,3.53
2018-08-07T17:23:01.865Z,3.00
2018-08-07T17:25:31.472Z,3.63
2018-08-07T17:28:01.111Z,6.80
2018-08-07T17:30:30.743Z,4.37
2018-08-07T17:33:00.405Z,3.70
2018-08-07T17:35:30.832Z,3.23
2018-08-07T17:38:00.457Z,5.80
2018-08-07T17:40:30.346Z,3.77
2018-08-07T17:43:00.076Z,3.17
2018-08-07T17:45:29.688Z,2.67
2018-08-07T17:47:59.197Z,3.50
2018-08-07T17:50:28.794Z,4.40
2018-08-07T17:52:59.548Z,3.47
2018-08-07T17:55:29.108Z,3.63
2018-08-07T17:57:59.697Z,4.77
2018-08-07T18:00:29.359Z,3.63
2018-08-07T18:02:58.969Z,4.70
2018-08-07T18:05:28.116Z,4.43
2018-08-07T18:07:58.320Z,3.77
2018-08-07T18:10:27.932Z,4.77
2018-08-07T18:12:57.563Z,4.37
2018-08-07T18:15:26.765Z,3.07
2018-08-07T18:17:56.275Z,3.13
2018-08-07T18:20:26.657Z,6.20
2018-08-07T18:22:56.221Z,8.13
2018-08-07T18:25:25.849Z,4.17
2018-08-07T18:27:55.378Z,3.60
2018-08-07T18:30:25.408Z,3.17
2018-08-07T18:32:54.888Z,5.53
2018-08-07T18:35:25.603Z,5.70
2018-08-07T18:37:55.221Z,4.30
2018-08-07T18:40:24.831Z,4.80
2018-08-07T18:42:54.398Z,2.73
2018-08-07T18:45:24.048Z,3.87
2018-08-07T18:47:53.663Z,3.23
2018-08-07T18:50:24.020Z,4.77
2018-08-07T18:52:53.706Z,5.60
2018-08-07T18:55:23.333Z,4.80
2018-08-07T18:57:52.897Z,3.77
2018-08-07T19:00:24.519Z,5.83
2018-08-07T19:02:53.749Z,5.60
2018-08-07T19:05:24.250Z,6.73
2018-08-07T19:07:53.938Z,5.17
2018-08-07T19:10:23.499Z,5.13
2018-08-07T19:12:53.058Z,5.50
2018-08-07T19:15:22.572Z,5.50
2018-08-07T19:17:52.151Z,4.33
2018-08-07T19:20:22.809Z,5.40
2018-08-07T19:22:52.396Z,5.83
2018-08-07T19:25:21.997Z,5.53
2018-08-07T19:27:51.599Z,4.47
2018-08-07T19:30:22.996Z,5.63
2018-08-07T19:32:52.562Z,6.53
2018-08-07T19:35:22.089Z,4.87
2018-08-07T19:37:51.759Z,7.03
2018-08-07T19:40:21.398Z,6.83
2018-08-07T19:42:51.598Z,6.10
2018-08-07T19:45:51.502Z,6.50
2018-08-07T19:48:21.037Z,6.40
2018-08-07T19:50:50.658Z,5.87
2018-08-07T19:53:20.810Z,8.43
2018-08-07T19:55:50.483Z,8.07
2018-08-07T19:58:20.042Z,4.23
2018-08-07T20:00:49.750Z,5.30
2018-08-07T20:03:19.496Z,6.57
2018-08-07T20:05:49.073Z,7.13
2018-08-07T20:08:18.541Z,7.53
2018-08-07T20:10:48.149Z,5.40
2018-08-07T20:13:17.702Z,6.57
2018-08-07T20:15:47.314Z,5.07
2018-08-07T20:18:16.927Z,6.57
2018-08-07T20:20:46.515Z,5.30
2018-08-07T20:23:16.111Z,6.57
2018-08-07T20:25:45.658Z,5.90
2018-08-07T20:28:15.250Z,7.87
2018-08-07T20:30:44.863Z,9.20
2018-08-07T20:33:14.472Z,6.87
2018-08-07T20:35:43.972Z,6.90
2018-08-07T20:38:13.610Z,5.80
2018-08-07T20:40:43.150Z,5.60
2018-08-07T20:43:12.835Z,6.57
2018-08-07T20:45:42.446Z,5.43
2018-08-07T20:48:12.033Z,5.37
2018-08-07T20:50:41.833Z,4.53
2018-08-07T20:53:11.443Z,5.87
2018-08-07T20:55:41.224Z,8.93
2018-08-07T20:58:10.914Z,6.37
2018-08-07T21:00:40.454Z,6.10
2018-08-07T21:03:10.139Z,7.47
2018-08-07T21:05:39.751Z,6.43
2018-08-07T21:08:09.471Z,5.73
2018-08-07T21:10:39.001Z,4.60
2018-08-07T21:13:08.640Z,5.83
2018-08-07T21:15:38.405Z,6.03
2018-08-07T21:18:07.985Z,5.43
2018-08-07T21:20:37.519Z,5.57
2018-08-07T21:23:07.099Z,5.20
2018-08-07T21:25:36.698Z,8.07
2018-08-07T21:28:06.428Z,4.33
2018-08-07T21:30:36.025Z,4.43
2018-08-07T21:33:05.552Z,4.70
2018-08-07T21:35:35.047Z,5.73
2018-08-07T21:38:04.695Z,8.33
2018-08-07T21:40:34.277Z,7.73
2018-08-07T21:43:03.996Z,7.53
2018-08-07T21:45:33.581Z,7.80
2018-08-07T21:48:03.263Z,5.37
2018-08-07T21:50:32.833Z,7.07
2018-08-07T21:53:02.365Z,6.37
2018-08-07T21:55:31.936Z,5.87
2018-08-07T21:58:01.460Z,6.00
2018-08-07T22:00:37.552Z,8.43
2018-08-07T22:03:07.643Z,8.43
2018-08-07T22:05:37.279Z,6.00
2018-08-07T22:08:07.384Z,6.50
2018-08-07T22:10:38.609Z,5.07
2018-08-07T22:13:08.251Z,7.20
2018-08-07T22:15:37.853Z,7.60
2018-08-07T22:18:08.683Z,5.20
2018-08-07T22:20:38.326Z,7.03
2018-08-07T22:23:08.032Z,7.07
2018-08-07T22:25:37.587Z,6.53
2018-08-07T22:28:07.096Z,7.50
2018-08-07T22:30:36.626Z,7.20
2018-08-07T22:33:06.576Z,9.83
2018-08-07T22:35:36.182Z,7.03
2018-08-07T22:38:05.707Z,6.43
2018-08-07T22:40:35.424Z,4.73
2018-08-07T22:43:05.013Z,9.13
2018-08-07T22:45:34.618Z,6.73
2018-08-07T22:48:05.253Z,6.77
2018-08-07T22:50:34.764Z,8.00
2018-08-07T22:53:04.401Z,5.30
2018-08-07T22:55:34.019Z,6.30
2018-08-07T22:58:03.607Z,7.80
2018-08-07T23:00:35.173Z,5.37
2018-08-07T23:03:04.893Z,6.80
2018-08-07T23:05:34.465Z,8.40
2018-08-07T23:08:04.069Z,7.43
2018-08-07T23:10:33.596Z,5.80
2018-08-07T23:13:03.122Z,5.20
2018-08-07T23:15:32.693Z,4.93
2018-08-07T23:18:02.193Z,5.33
2018-08-07T23:20:31.765Z,6.77
2018-08-07T23:23:01.367Z,5.33
2018-08-07T23:25:30.901Z,5.27
2018-08-07T23:28:00.499Z,6.50
2018-08-07T23:30:30.013Z,4.57
2018-08-07T23:32:59.582Z,5.13
2018-08-07T23:35:29.100Z,4.93
2018-08-07T23:37:58.592Z,7.57
2018-08-07T23:40:28.203Z,5.43
2018-08-07T23:42:57.756Z,4.57
2018-08-07T23:45:27.325Z,7.17
2018-08-07T23:47:56.855Z,5.90
2018-08-07T23:50:26.495Z,5.90
2018-08-07T23:52:56.100Z,6.17
2018-08-07T23:55:25.713Z,5.80
2018-08-07T23:57:55.228Z,4.77
